Time;durP1;ratioP1;P1;durP2;ratioP2;P2;SDS_P1;SDS_P2;PMS_P1;PMS_P2;Temp;Humidity;BMP_temperature;BMP_pressure;BME280_temperature;BME280_humidity;BME280_pressure;Samples;Min_cycle;Max_cycle;Signal;HPM_P1;HPM_P2
2023/10/12 00:01:39;;;;;;;14.53;7.30;;;16.80;16.80;;;;;;5005062;28;20507;-62
2023/10/12 00:04:06;;;;;;;12.53;6.77;;;16.90;17.00;;;;;;5008975;28;20487;-62
2023/10/12 00:06:37;;;;;;;12.33;7.17;;;16.80;17.00;;;;;;5011510;28;20463;-62
2023/10/12 00:09:16;;;;;;;17.33;7.00;;;16.80;17.10;;;;;;5009003;28;20464;-62
2023/10/12 00:11:54;;;;;;;10.20;6.67;;;16.80;17.00;;;;;;5009345;28;20465;-62
2023/10/12 00:14:22;;;;;;;14.67;8.83;;;16.80;17.00;;;;;;5008546;28;20480;-62
2023/10/12 00:16:50;;;;;;;13.60;7.07;;;16.80;17.30;;;;;;5009454;28;20463;-62
2023/10/12 00:19:17;;;;;;;12.20;6.20;;;16.70;17.40;;;;;;5009903;28;20582;-62
2023/10/12 00:21:46;;;;;;;11.80;7.20;;;16.70;17.40;;;;;;5011094;28;20470;-62
2023/10/12 00:24:18;;;;;;;12.80;7.67;;;16.60;17.20;;;;;;5010674;28;20602;-62
2023/10/12 00:26:45;;;;;;;16.00;7.20;;;16.60;16.90;;;;;;5006665;28;20525;-62
2023/10/12 00:29:12;;;;;;;15.27;8.23;;;16.50;17.20;;;;;;5010151;28;20463;-62
2023/10/12 00:31:42;;;;;;;13.40;7.43;;;16.50;17.20;;;;;;5009563;28;20479;-62
2023/10/12 00:34:12;;;;;;;16.40;8.60;;;16.50;17.50;;;;;;5007359;28;20492;-62
2023/10/12 00:36:40;;;;;;;15.27;7.37;;;16.40;17.90;;;;;;5006841;28;21145;-62
2023/10/12 00:39:10;;;;;;;14.57;8.03;;;16.40;18.00;;;;;;5011136;28;20479;-62
2023/10/12 00:41:44;;;;;;;10.90;8.20;;;16.40;18.10;;;;;;5009405;28;20468;-62
2023/10/12 00:44:12;;;;;;;13.57;8.20;;;16.40;18.20;;;;;;5011735;28;20574;-62
2023/10/12 00:46:58;;;;;;;13.83;7.40;;;16.30;18.40;;;;;;5010798;28;20468;-62
2023/10/12 00:49:30;;;;;;;12.63;8.17;;;16.30;18.60;;;;;;5005514;28;20460;-62
2023/10/12 00:52:08;;;;;;;12.33;7.37;;;16.40;18.70;;;;;;5009485;28;20470;-62
2023/10/12 00:54:55;;;;;;;19.00;7.60;;;16.30;18.80;;;;;;5006621;28;20479;-62
2023/10/12 00:57:22;;;;;;;13.37;7.60;;;16.30;19.10;;;;;;5008156;28;20460;-62
2023/10/12 00:59:52;;;;;;;14.83;8.33;;;16.30;19.00;;;;;;5008072;28;20519;-62
2023/10/12 01:02:23;;;;;;;17.70;7.33;;;16.30;19.20;;;;;;5006591;28;20476;-62
2023/10/12 01:04:53;;;;;;;15.97;7.60;;;16.30;19.00;;;;;;5007464;28;20519;-62
2023/10/12 01:07:25;;;;;;;13.70;7.50;;;16.30;19.10;;;;;;5009109;28;20456;-62
2023/10/12 01:10:03;;;;;;;17.20;7.53;;;16.30;19.10;;;;;;5008445;28;21034;-62
2023/10/12 01:12:31;;;;;;;16.70;7.90;;;16.30;19.20;;;;;;5010102;28;20464;-62
2023/10/12 01:15:04;;;;;;;14.63;7.33;;;16.30;19.20;;;;;;5009313;28;20476;-62
2023/10/12 01:17:34;;;;;;;11.23;7.60;;;16.30;19.30;;;;;;5007141;28;20468;-62
2023/10/12 01:20:10;;;;;;;12.30;7.00;;;16.30;19.30;;;;;;5008749;28;20472;-62
2023/10/12 01:22:39;;;;;;;13.23;8.33;;;16.30;19.20;;;;;;5009468;28;20543;-62
2023/10/12 01:25:19;;;;;;;15.27;8.00;;;16.30;19.30;;;;;;5008859;28;20936;-62
2023/10/12 01:27:46;;;;;;;16.37;8.53;;;16.30;19.30;;;;;;5006943;28;20975;-62
2023/10/12 01:30:15;;;;;;;15.30;7.53;;;16.30;19.20;;;;;;5007782;28;20464;-62
2023/10/12 01:32:42;;;;;;;15.30;7.67;;;16.30;19.00;;;;;;5007832;28;20459;-62
2023/10/12 01:35:11;;;;;;;16.13;8.00;;;16.30;19.10;;;;;;5009197;28;20483;-62
2023/10/12 01:37:49;;;;;;;14.47;7.30;;;16.20;19.10;;;;;;5006681;28;20570;-62
2023/10/12 01:40:21;;;;;;;13.90;7.70;;;16.10;19.10;;;;;;5007117;28;20506;-62
2023/10/12 01:42:51;;;;;;;16.53;8.70;;;16.10;19.20;;;;;;5007633;28;20464;-62
2023/10/12 01:45:31;;;;;;;14.20;7.97;;;16.10;19.00;;;;;;5004456;28;20475;-62
2023/10/12 01:48:05;;;;;;;12.70;7.87;;;16.00;19.00;;;;;;5008517;28;20458;-62
2023/10/12 01:50:33;;;;;;;13.50;8.43;;;16.00;19.30;;;;;;5009407;28;20968;-62
2023/10/12 01:53:06;;;;;;;10.00;6.73;;;16.00;19.40;;;;;;5007074;28;20513;-62
2023/10/12 01:55:33;;;;;;;16.43;7.80;;;16.00;19.30;;;;;;5007602;28;20566;-62
2023/10/12 01:58:04;;;;;;;14.40;7.07;;;15.90;18.90;;;;;;5007703;28;20948;-62
2023/10/12 02:00:39;;;;;;;14.57;6.90;;;15.90;18.90;;;;;;5008129;28;20479;-62
2023/10/12 02:03:12;;;;;;;18.87;7.10;;;15.90;19.40;;;;;;5005411;28;20470;-62
2023/10/12 02:05:46;;;;;;;13.80;7.77;;;15.90;19.10;;;;;;5007539;28;20484;-62
2023/10/12 02:08:16;;;;;;;13.20;6.97;;;15.80;19.30;;;;;;5007678;28;21149;-62
2023/10/12 02:10:54;;;;;;;13.57;6.87;;;15.70;19.20;;;;;;5008020;28;20464;-62
2023/10/12 02:13:21;;;;;;;12.37;7.47;;;15.70;19.20;;;;;;5006503;28;20833;-62
2023/10/12 02:15:50;;;;;;;12.30;7.40;;;15.60;19.40;;;;;;5007349;28;20578;-62
2023/10/12 02:18:18;;;;;;;14.93;8.03;;;15.60;19.40;;;;;;5006783;28;20470;-62
2023/10/12 02:21:00;;;;;;;12.93;7.50;;;15.60;19.70;;;;;;5007430;28;20483;-62
2023/10/12 02:23:36;;;;;;;15.93;7.13;;;15.50;19.70;;;;;;5003753;28;20518;-62
2023/10/12 02:26:07;;;;;;;17.67;7.43;;;15.50;20.00;;;;;;5007853;28;20890;-63
2023/10/12 02:28:37;;;;;;;19.47;8.53;;;15.50;20.30;;;;;;5006705;28;20526;-62
2023/10/12 02:31:04;;;;;;;14.80;7.93;;;15.50;20.70;;;;;;5007479;28;20893;-62
2023/10/12 02:33:37;;;;;;;12.50;6.43;;;15.50;20.70;;;;;;5009011;28;20561;-62
2023/10/12 02:36:07;;;;;;;14.73;6.93;;;15.50;20.90;;;;;;5003967;28;20474;-62
2023/10/12 02:38:35;;;;;;;13.50;6.90;;;15.50;21.10;;;;;;5004256;28;20491;-62
2023/10/12 02:41:03;;;;;;;18.20;7.97;;;15.50;21.40;;;;;;5007069;28;20484;-62
2023/10/12 02:43:33;;;;;;;16.60;8.80;;;15.50;21.80;;;;;;5008580;28;20464;-62
2023/10/12 02:46:06;;;;;;;15.57;7.77;;;15.50;21.90;;;;;;5008757;28;20468;-62
2023/10/12 02:48:36;;;;;;;11.00;7.03;;;15.40;22.10;;;;;;5007684;28;20543;-62
2023/10/12 02:51:06;;;;;;;16.10;9.40;;;15.50;22.00;;;;;;5007959;28;20828;-62
2023/10/12 02:53:35;;;;;;;16.30;6.93;;;15.50;21.90;;;;;;5008384;28;20492;-62
2023/10/12 02:56:02;;;;;;;16.60;7.83;;;15.50;22.00;;;;;;5005873;28;20635;-62
2023/10/12 02:58:29;;;;;;;12.13;6.97;;;15.50;21.80;;;;;;5007252;28;21269;-62
2023/10/12 03:00:58;;;;;;;15.20;8.17;;;15.50;21.70;;;;;;5006278;28;20480;-62
2023/10/12 03:03:33;;;;;;;14.47;7.13;;;15.50;21.90;;;;;;5008298;28;20554;-62
2023/10/12 03:06:07;;;;;;;15.00;8.20;;;15.50;22.00;;;;;;5005726;28;20466;-62
2023/10/12 03:08:47;;;;;;;12.83;7.50;;;15.50;22.00;;;;;;5008256;28;20570;-62
2023/10/12 03:11:15;;;;;;;17.50;7.63;;;15.50;22.10;;;;;;5005969;28;20475;-62
2023/10/12 03:13:54;;;;;;;12.40;7.60;;;15.50;22.00;;;;;;5007045;28;20460;-62
2023/10/12 03:16:22;;;;;;;14.57;7.37;;;15.50;22.60;;;;;;4999744;28;20460;-62
2023/10/12 03:19:00;;;;;;;12.37;6.70;;;15.50;22.10;;;;;;5002954;28;20468;-62
2023/10/12 03:21:33;;;;;;;20.10;8.30;;;15.50;22.60;;;;;;5005593;28;20487;-62
2023/10/12 03:24:03;;;;;;;12.00;7.50;;;15.50;22.30;;;;;;5006655;28;20479;-62
2023/10/12 03:26:32;;;;;;;10.23;6.83;;;15.50;22.40;;;;;;5004274;28;20571;-62
2023/10/12 03:29:08;;;;;;;16.27;7.53;;;15.50;22.30;;;;;;5004647;28;20468;-62
2023/10/12 03:31:36;;;;;;;13.93;6.80;;;15.50;22.20;;;;;;5003226;28;20558;-62
2023/10/12 03:34:16;;;;;;;17.37;7.37;;;15.50;22.00;;;;;;5004488;28;20515;-62
2023/10/12 03:36:47;;;;;;;16.07;8.10;;;15.50;22.10;;;;;;5002825;28;20472;-62
2023/10/12 03:39:25;;;;;;;13.73;7.40;;;15.50;22.20;;;;;;5004214;28;20473;-62
2023/10/12 03:42:10;;;;;;;13.70;7.13;;;15.50;22.00;;;;;;5005301;28;20487;-62
2023/10/12 03:44:49;;;;;;;15.10;7.43;;;15.50;22.00;;;;;;5007194;28;20498;-62
2023/10/12 03:47:24;;;;;;;11.13;6.63;;;15.50;21.80;;;;;;5006892;28;20471;-62
2023/10/12 03:49:59;;;;;;;18.23;7.63;;;15.50;22.00;;;;;;5005010;28;20464;-62
2023/10/12 03:52:34;;;;;;;11.83;6.30;;;15.60;21.70;;;;;;5004858;28;20467;-62
2023/10/12 03:55:25;;;;;;;14.57;6.43;;;15.60;21.60;;;;;;5006621;28;20478;-62
2023/10/12 03:58:00;;;;;;;14.87;7.10;;;15.60;21.40;;;;;;5003681;28;20956;-62
2023/10/12 04:00:34;;;;;;;13.37;8.00;;;15.60;21.30;;;;;;5003775;28;20490;-62
2023/10/12 04:03:14;;;;;;;16.80;6.97;;;15.60;21.30;;;;;;5002968;28;20800;-62
2023/10/12 04:05:51;;;;;;;12.43;6.80;;;15.70;22.10;;;;;;4999674;28;20571;-63
2023/10/12 04:08:38;;;;;;;13.43;6.80;;;15.60;21.40;;;;;;5001866;28;20464;-63
2023/10/12 04:11:47;;;;;;;12.77;5.60;;;15.70;21.30;;;;;;5006171;28;20455;-63
2023/10/12 04:14:48;;;;;;;11.57;6.57;;;15.70;21.30;;;;;;5003629;28;20878;-64
2023/10/12 04:20:16;;;;;;;10.90;6.40;;;15.80;20.70;;;;;;5003089;28;21007;-67
2023/10/12 04:25:32;;;;;;;15.23;6.80;;;15.90;20.60;;;;;;5008605;28;20952;-67
2023/10/12 04:28:16;;;;;;;14.60;5.90;;;15.90;20.50;;;;;;5004086;28;20558;-66
2023/10/12 04:31:20;;;;;;;10.50;6.23;;;15.90;20.20;;;;;;5003657;28;20772;-66
2023/10/12 04:33:43;;;;;;;16.90;7.23;;;15.90;20.00;;;;;;5001667;28;20469;-66
2023/10/12 04:36:24;;;;;;;14.10;6.03;;;16.00;19.90;;;;;;5006204;28;20957;-67
2023/10/12 04:39:11;;;;;;;14.00;6.30;;;16.00;19.90;;;;;;5008145;28;20456;-65
2023/10/12 04:41:38;;;;;;;13.63;6.50;;;16.00;19.80;;;;;;5005985;28;20515;-68
2023/10/12 04:44:25;;;;;;;11.37;5.93;;;16.00;19.80;;;;;;5008556;28;20476;-66
2023/10/12 04:46:58;;;;;;;13.57;7.03;;;16.00;19.80;;;;;;5003128;28;20463;-67
2023/10/12 04:52:16;;;;;;;14.40;6.97;;;16.00;19.60;;;;;;5008638;28;20490;-66
2023/10/12 04:55:06;;;;;;;12.83;6.10;;;16.00;19.70;;;;;;5007407;28;20567;-66
2023/10/12 04:57:34;;;;;;;13.00;6.90;;;15.90;19.70;;;;;;5000593;28;20961;-66
2023/10/12 05:00:24;;;;;;;12.30;8.00;;;15.90;19.60;;;;;;5008406;28;20523;-66
2023/10/12 05:02:58;;;;;;;12.80;6.20;;;15.90;19.70;;;;;;5001647;28;20464;-66
2023/10/12 05:08:12;;;;;;;13.73;5.83;;;15.90;19.70;;;;;;5001807;28;20447;-66
2023/10/12 05:10:46;;;;;;;11.57;5.80;;;15.90;19.70;;;;;;5007321;28;20764;-66
2023/10/12 05:13:19;;;;;;;13.97;6.47;;;15.90;19.60;;;;;;5005340;28;20557;-66
2023/10/12 05:15:54;;;;;;;12.50;6.50;;;15.90;19.60;;;;;;5016424;23;20496;-67
2023/10/12 05:18:22;;;;;;;13.83;7.47;;;15.90;19.50;;;;;;4962315;28;20473;-66
2023/10/12 05:20:49;;;;;;;18.07;6.53;;;15.90;19.40;;;;;;4966952;28;20481;-66
2023/10/12 05:23:17;;;;;;;13.07;6.90;;;15.90;19.80;;;;;;4966806;28;20470;-66
2023/10/12 05:25:53;;;;;;;13.40;6.27;;;15.90;19.20;;;;;;4965680;28;20536;-66
2023/10/12 05:28:21;;;;;;;12.93;6.77;;;15.90;19.10;;;;;;4968270;28;20497;-64
2023/10/12 05:30:51;;;;;;;14.57;6.93;;;15.80;18.90;;;;;;4969084;28;20535;-64
2023/10/12 05:33:38;;;;;;;14.57;6.87;;;15.80;18.90;;;;;;4991064;28;20473;-64
2023/10/12 05:36:08;;;;;;;18.53;7.20;;;15.80;18.90;;;;;;4991189;28;20484;-63
2023/10/12 05:38:36;;;;;;;15.23;7.30;;;15.80;19.00;;;;;;4987639;28;20460;-63
2023/10/12 05:41:04;;;;;;;10.90;6.17;;;15.70;19.00;;;;;;4990949;28;20599;-64
2023/10/12 05:43:34;;;;;;;16.20;7.30;;;15.70;18.90;;;;;;4986877;28;20554;-64
2023/10/12 05:46:04;;;;;;;10.80;6.03;;;15.80;18.80;;;;;;4986605;28;20476;-63
2023/10/12 05:48:34;;;;;;;16.73;6.80;;;15.70;18.90;;;;;;4989358;28;20483;-63
2023/10/12 05:51:01;;;;;;;12.07;6.50;;;15.70;18.90;;;;;;4982307;28;20469;-63
2023/10/12 05:53:28;;;;;;;14.33;6.37;;;15.80;18.90;;;;;;4990658;28;20465;-64
2023/10/12 05:55:56;;;;;;;14.70;5.90;;;15.80;19.00;;;;;;4988709;28;20542;-63
2023/10/12 05:58:23;;;;;;;11.37;6.80;;;15.80;18.90;;;;;;4987926;28;20527;-64
2023/10/12 06:00:52;;;;;;;12.03;5.97;;;15.70;19.00;;;;;;4989478;28;20471;-64
2023/10/12 06:03:21;;;;;;;13.17;6.20;;;15.80;19.00;;;;;;4987908;28;20539;-63
2023/10/12 06:05:50;;;;;;;14.73;6.63;;;15.80;19.20;;;;;;4990878;28;20477;-64
2023/10/12 06:08:18;;;;;;;11.10;6.13;;;15.80;19.10;;;;;;4988656;28;20457;-64
2023/10/12 06:10:45;;;;;;;13.10;6.07;;;15.80;19.00;;;;;;4996125;28;20478;-65
2023/10/12 06:13:13;;;;;;;13.53;5.90;;;15.90;18.90;;;;;;4989599;28;20464;-65
2023/10/12 06:15:42;;;;;;;14.50;6.40;;;15.90;18.70;;;;;;4989634;28;20547;-65
2023/10/12 06:18:21;;;;;;;12.87;5.73;;;16.00;18.60;;;;;;4986299;28;20468;-65
2023/10/12 06:20:58;;;;;;;9.17;5.17;;;16.00;18.50;;;;;;4984699;28;20831;-66
2023/10/12 06:23:25;;;;;;;13.40;5.83;;;16.10;18.00;;;;;;4989897;28;20597;-66
2023/10/12 06:25:51;;;;;;;12.80;5.30;;;16.20;17.60;;;;;;4991315;28;20865;-65
2023/10/12 06:28:18;;;;;;;10.10;5.17;;;16.40;17.40;;;;;;4999348;28;20469;-65
2023/10/12 06:30:45;;;;;;;12.20;5.70;;;16.60;17.00;;;;;;5001871;28;20473;-65
2023/10/12 06:33:14;;;;;;;10.83;5.40;;;16.80;16.60;;;;;;4987055;28;20516;-66
2023/10/12 06:35:58;;;;;;;11.70;5.90;;;17.00;16.30;;;;;;4985727;28;20481;-66
2023/10/12 06:38:37;;;;;;;10.67;5.67;;;17.40;15.90;;;;;;4985038;28;20893;-66
2023/10/12 06:41:28;;;;;;;9.83;5.20;;;17.80;15.10;;;;;;4980867;28;20488;-62
2023/10/12 06:44:12;;;;;;;23.20;7.27;;;18.40;14.10;;;;;;4985899;28;20484;-63
2023/10/12 06:46:46;;;;;;;13.53;6.40;;;19.00;12.60;;;;;;4986995;28;20460;-63
2023/10/12 06:49:17;;;;;;;12.47;4.90;;;19.40;11.30;;;;;;4986871;28;21035;-63
2023/10/12 06:51:49;;;;;;;12.47;6.07;;;19.50;10.60;;;;;;4987752;28;20457;-63
2023/10/12 06:54:31;;;;;;;9.80;5.53;;;19.50;10.30;;;;;;4991167;28;20488;-63
2023/10/12 06:57:29;;;;;;;14.07;5.93;;;19.50;9.90;;;;;;4988574;28;20471;-63
2023/10/12 06:59:59;;;;;;;12.73;6.13;;;19.50;9.60;;;;;;4986612;28;20460;-63
2023/10/12 07:02:27;;;;;;;13.10;5.47;;;19.50;9.40;;;;;;4984670;28;20535;-64
2023/10/12 07:04:54;;;;;;;18.00;5.53;;;19.50;9.30;;;;;;4986417;28;20495;-64
2023/10/12 07:07:26;;;;;;;11.97;5.80;;;19.50;9.10;;;;;;4984739;28;20548;-63
2023/10/12 07:10:12;;;;;;;9.23;4.93;;;19.50;9.00;;;;;;4988642;28;20952;-63
2023/10/12 07:12:42;;;;;;;10.87;5.53;;;19.70;8.80;;;;;;4983560;28;20465;-63
2023/10/12 07:15:12;;;;;;;17.63;5.20;;;20.10;8.00;;;;;;4985651;28;20571;-64
2023/10/12 07:17:48;;;;;;;11.60;5.50;;;20.50;7.40;;;;;;4980974;28;20477;-63
2023/10/12 07:20:27;;;;;;;14.47;5.73;;;20.70;6.40;;;;;;4986337;28;20456;-63
2023/10/12 07:22:54;;;;;;;12.57;4.60;;;20.80;5.80;;;;;;4984848;28;20488;-63
2023/10/12 07:25:23;;;;;;;15.07;5.57;;;20.80;5.60;;;;;;4987154;28;20512;-63
2023/10/12 07:27:56;;;;;;;15.53;6.20;;;21.00;5.50;;;;;;4985785;28;20477;-63
2023/10/12 07:30:30;;;;;;;10.63;4.93;;;21.10;4.60;;;;;;4986282;28;20548;-63
2023/10/12 07:32:59;;;;;;;12.80;4.80;;;21.20;4.10;;;;;;4986660;28;20463;-63
2023/10/12 07:35:34;;;;;;;11.60;5.50;;;21.30;3.70;;;;;;4986134;28;20934;-63
2023/10/12 07:38:01;;;;;;;9.73;4.43;;;21.30;3.40;;;;;;4987067;28;20464;-64
2023/10/12 07:40:35;;;;;;;11.70;4.47;;;21.40;3.10;;;;;;4984790;28;20846;-64
2023/10/12 07:43:05;;;;;;;9.60;4.77;;;21.80;2.90;;;;;;4982100;28;20519;-64
2023/10/12 07:45:37;;;;;;;10.47;4.43;;;23.50;1.00;;;;;;4983286;28;20844;-64
2023/10/12 07:48:06;;;;;;;12.17;4.80;;;25.00;1.00;;;;;;4985558;28;20944;-64
2023/10/12 07:50:37;;;;;;;11.40;4.47;;;26.10;1.00;;;;;;4986942;28;20525;-64
2023/10/12 07:53:14;;;;;;;10.80;4.20;;;27.00;1.00;;;;;;4988790;28;20827;-64
2023/10/12 07:55:44;;;;;;;13.27;4.73;;;28.50;1.00;;;;;;4988873;28;20575;-64
2023/10/12 07:58:12;;;;;;;10.67;4.27;;;30.00;1.00;;;;;;4989100;28;20587;-64
2023/10/12 08:00:41;;;;;;;14.60;4.60;;;31.20;1.00;;;;;;4988304;28;20480;-64
2023/10/12 08:03:18;;;;;;;15.07;4.87;;;32.00;1.00;;;;;;4991684;28;20460;-64
2023/10/12 08:05:56;;;;;;;11.33;4.30;;;32.90;1.00;;;;;;4987192;28;20839;-64
2023/10/12 08:08:37;;;;;;;13.87;4.70;;;33.60;1.00;;;;;;4991881;28;20471;-66
2023/10/12 08:14:19;;;;;;;12.93;5.30;;;35.80;1.00;;;;;;4929398;29;20949;-66
2023/10/12 08:17:24;;;;;;;10.70;4.17;;;36.50;1.00;;;;;;4981290;28;20484;-66
2023/10/12 08:19:39;;;;;;;9.70;4.93;;;36.80;1.00;;;;;;4992150;28;20830;-66
2023/10/12 08:22:09;;;;;;;11.60;4.30;;;37.70;1.00;;;;;;4985051;28;21001;-66
2023/10/12 08:24:37;;;;;;;7.47;4.17;;;38.50;1.00;;;;;;4990208;28;21033;-66
2023/10/12 08:27:06;;;;;;;10.67;4.20;;;39.10;1.00;;;;;;4993184;28;20504;-66
2023/10/12 08:32:33;;;;;;;7.60;4.43;;;40.70;1.00;;;;;;4991651;28;20558;-66
2023/10/12 08:35:11;;;;;;;10.10;4.30;;;41.40;1.00;;;;;;4989873;28;20503;-64
2023/10/12 08:37:49;;;;;;;17.33;5.10;;;42.10;1.00;;;;;;4984448;28;20984;-64
2023/10/12 08:40:19;;;;;;;10.70;4.57;;;42.70;1.00;;;;;;4988189;28;20500;-66
2023/10/12 08:42:58;;;;;;;9.23;4.53;;;43.50;1.00;;;;;;4989012;28;20477;-67
2023/10/12 08:45:26;;;;;;;8.83;4.33;;;44.00;1.00;;;;;;4989151;28;21013;-67
2023/10/12 08:47:54;;;;;;;10.07;4.50;;;44.40;1.00;;;;;;4989531;28;20464;-67
2023/10/12 08:50:47;;;;;;;7.00;4.00;;;44.90;1.00;;;;;;4987627;28;20575;-67
2023/10/12 08:53:19;;;;;;;11.10;4.67;;;45.30;1.00;;;;;;4990065;28;20475;-67
2023/10/12 08:55:48;;;;;;;8.53;3.80;;;45.70;1.00;;;;;;4988962;28;20566;-67
2023/10/12 08:58:31;;;;;;;12.93;4.40;;;46.10;1.00;;;;;;4989558;28;20843;-67
2023/10/12 09:01:09;;;;;;;8.57;4.33;;;46.60;1.00;;;;;;4988297;28;20476;-67
2023/10/12 09:03:44;;;;;;;9.33;3.93;;;46.10;1.00;;;;;;4986883;28;20462;-67
2023/10/12 09:09:07;;;;;;;8.93;4.20;;;46.30;1.00;;;;;;4953508;28;20452;-67
2023/10/12 09:11:33;;;;;;;9.37;4.30;;;46.10;1.00;;;;;;4985117;28;20484;-67
2023/10/12 09:14:11;;;;;;;13.77;4.07;;;46.30;1.00;;;;;;4990313;28;20488;-64
2023/10/12 09:16:37;;;;;;;9.93;4.33;;;45.20;1.00;;;;;;4984186;28;20893;-65
2023/10/12 09:19:07;;;;;;;13.83;4.40;;;43.80;1.00;;;;;;4989586;28;20471;-65
2023/10/12 09:21:42;;;;;;;13.00;4.63;;;43.00;1.00;;;;;;4990182;28;21116;-65
2023/10/12 09:24:15;;;;;;;9.47;4.60;;;42.10;1.00;;;;;;4985848;28;20566;-66
2023/10/12 09:26:49;;;;;;;9.33;4.57;;;40.80;1.00;;;;;;4988218;28;20635;-65
2023/10/12 09:29:23;;;;;;;7.23;4.27;;;40.40;1.00;;;;;;4986291;28;20463;-66
2023/10/12 09:32:12;;;;;;;8.20;4.40;;;40.80;1.00;;;;;;4988047;28;20899;-66
2023/10/12 09:34:43;;;;;;;8.50;4.87;;;40.50;1.00;;;;;;4992416;28;20480;-65
2023/10/12 09:37:16;;;;;;;7.07;3.40;;;39.90;1.00;;;;;;5004944;28;20467;-65
2023/10/12 09:39:45;;;;;;;9.43;4.30;;;39.10;1.00;;;;;;5005385;28;20456;-65
2023/10/12 09:42:30;;;;;;;8.20;4.30;;;38.70;1.00;;;;;;4989374;28;21073;-66
2023/10/12 09:45:04;;;;;;;10.10;4.23;;;37.90;1.00;;;;;;4987397;28;20520;-67
2023/10/12 09:47:50;;;;;;;11.33;5.10;;;36.90;1.00;;;;;;4988807;28;20466;-67
2023/10/12 09:50:19;;;;;;;7.27;4.30;;;36.00;1.00;;;;;;4984299;28;20519;-64
2023/10/12 09:52:57;;;;;;;11.27;4.60;;;35.00;1.00;;;;;;4990193;28;21018;-64
2023/10/12 09:55:32;;;;;;;24.20;5.17;;;35.40;1.00;;;;;;4989809;28;20484;-65
2023/10/12 09:58:12;;;;;;;10.97;5.77;;;36.40;1.00;;;;;;4988014;28;20803;-65
2023/10/12 10:01:01;;;;;;;7.80;4.10;;;36.90;1.00;;;;;;4992857;28;20461;-65
2023/10/12 10:03:35;;;;;;;12.07;5.00;;;35.60;1.00;;;;;;4987356;28;20480;-64
2023/10/12 10:06:19;;;;;;;10.27;4.63;;;35.20;1.00;;;;;;4986550;28;20942;-66
2023/10/12 10:09:04;;;;;;;12.07;5.00;;;36.30;1.00;;;;;;4986975;28;20488;-67
2023/10/12 10:11:32;;;;;;;10.90;4.87;;;37.60;1.00;;;;;;4985057;28;20834;-65
2023/10/12 10:14:00;;;;;;;15.60;4.60;;;38.50;1.00;;;;;;4987959;28;20501;-65
2023/10/12 10:16:42;;;;;;;10.13;4.33;;;39.40;1.00;;;;;;4982077;28;20466;-66
2023/10/12 10:19:14;;;;;;;8.83;4.40;;;39.00;1.00;;;;;;4988506;28;20496;-65
2023/10/12 10:21:49;;;;;;;12.27;5.00;;;37.60;1.00;;;;;;4989552;28;20543;-66
2023/10/12 10:24:19;;;;;;;13.00;4.80;;;36.50;1.00;;;;;;4990648;28;21012;-65
2023/10/12 10:26:48;;;;;;;15.60;5.90;;;35.70;1.00;;;;;;4990067;28;20507;-65
2023/10/12 10:29:18;;;;;;;12.50;5.43;;;35.80;1.00;;;;;;4992024;28;20477;-65
2023/10/12 10:31:51;;;;;;;7.13;4.90;;;36.00;1.00;;;;;;4987520;28;20479;-66
2023/10/12 10:34:23;;;;;;;9.60;4.80;;;36.60;1.00;;;;;;4990244;28;20472;-66
2023/10/12 10:36:52;;;;;;;8.90;4.87;;;36.20;1.00;;;;;;4980132;28;20543;-67
2023/10/12 10:39:31;;;;;;;11.60;5.03;;;36.00;1.00;;;;;;4986566;28;20464;-66
2023/10/12 10:42:00;;;;;;;8.13;4.23;;;36.20;1.00;;;;;;4983737;28;20575;-66
2023/10/12 10:44:27;;;;;;;12.57;4.90;;;36.20;1.00;;;;;;4984956;28;20488;-65
2023/10/12 10:47:06;;;;;;;7.03;4.07;;;35.80;1.00;;;;;;4984218;28;20465;-65
2023/10/12 10:49:33;;;;;;;12.07;4.50;;;35.10;1.00;;;;;;4981671;28;20465;-66
2023/10/12 10:52:14;;;;;;;8.30;4.30;;;34.30;1.00;;;;;;4986219;28;21015;-66
2023/10/12 10:54:56;;;;;;;12.83;4.43;;;33.90;1.00;;;;;;4984716;28;20504;-66
2023/10/12 10:57:30;;;;;;;8.83;4.63;;;34.20;1.00;;;;;;4984301;28;20539;-66
2023/10/12 10:59:58;;;;;;;8.87;5.03;;;34.40;1.00;;;;;;4984660;28;20463;-66
2023/10/12 11:02:27;;;;;;;11.40;5.00;;;34.40;1.00;;;;;;4988750;28;20504;-66
2023/10/12 11:04:58;;;;;;;7.93;4.70;;;34.30;1.00;;;;;;4985628;28;21005;-65
2023/10/12 11:07:25;;;;;;;9.37;4.40;;;34.20;1.00;;;;;;4988440;28;20515;-65
2023/10/12 11:10:19;;;;;;;11.90;4.23;;;34.20;1.00;;;;;;4990135;28;20452;-66
2023/10/12 11:12:45;;;;;;;7.33;3.90;;;34.30;1.00;;;;;;4986235;28;20456;-65
2023/10/12 11:15:12;;;;;;;11.37;4.60;;;34.30;1.00;;;;;;4982927;28;20476;-65
2023/10/12 11:17:56;;;;;;;9.60;4.70;;;34.30;1.00;;;;;;4978459;28;20493;-65
2023/10/12 11:20:36;;;;;;;9.43;4.63;;;34.40;1.00;;;;;;4985283;28;20466;-66
2023/10/12 11:23:07;;;;;;;12.20;5.17;;;34.30;1.00;;;;;;4986074;28;21082;-66
2023/10/12 11:25:39;;;;;;;8.10;4.37;;;34.20;1.00;;;;;;4983097;28;20516;-66
2023/10/12 11:28:18;;;;;;;11.37;5.23;;;34.20;1.00;;;;;;4993183;28;20476;-66
2023/10/12 11:30:45;;;;;;;16.70;4.53;;;34.20;1.00;;;;;;4985252;28;20484;-65
2023/10/12 11:33:16;;;;;;;7.87;4.40;;;34.10;1.00;;;;;;4985991;28;20465;-67
2023/10/12 11:35:44;;;;;;;17.87;5.33;;;34.10;1.00;;;;;;4988715;28;20488;-65
2023/10/12 11:38:17;;;;;;;17.73;5.10;;;34.00;1.00;;;;;;4987156;28;20472;-66
2023/10/12 11:40:44;;;;;;;13.40;5.27;;;33.80;1.00;;;;;;4985156;28;20917;-65
2023/10/12 11:43:11;;;;;;;9.40;4.50;;;33.80;1.00;;;;;;4987824;28;20943;-64
2023/10/12 11:46:01;;;;;;;11.10;4.37;;;33.70;1.00;;;;;;4988123;28;20484;-65
2023/10/12 11:48:30;;;;;;;9.03;4.50;;;33.70;1.00;;;;;;4994768;28;20544;-66
2023/10/12 11:50:57;;;;;;;7.40;4.30;;;33.80;1.00;;;;;;4987939;28;20464;-66
2023/10/12 11:53:28;;;;;;;12.10;5.87;;;33.80;1.00;;;;;;4994993;28;20468;-64
2023/10/12 11:56:08;;;;;;;11.50;4.90;;;33.80;1.00;;;;;;4984570;28;20492;-65
2023/10/12 11:58:34;;;;;;;8.70;4.37;;;33.70;1.00;;;;;;4987156;28;20467;-65
2023/10/12 12:01:02;;;;;;;6.67;4.33;;;33.50;1.00;;;;;;4984648;28;20481;-65
2023/10/12 12:03:37;;;;;;;8.50;4.00;;;33.50;1.00;;;;;;4987766;28;20476;-65
2023/10/12 12:06:09;;;;;;;9.63;4.60;;;33.50;1.00;;;;;;4985980;28;20464;-63
2023/10/12 12:08:36;;;;;;;7.50;3.80;;;33.30;1.00;;;;;;4985990;28;20468;-63
2023/10/12 12:11:03;;;;;;;11.73;4.70;;;33.00;1.00;;;;;;4990842;28;20503;-63
2023/10/12 12:13:35;;;;;;;7.50;4.47;;;32.80;1.00;;;;;;4990394;28;20465;-63
2023/10/12 12:16:02;;;;;;;10.40;4.60;;;32.60;1.00;;;;;;4986856;28;20948;-65
2023/10/12 12:18:32;;;;;;;7.90;4.50;;;32.40;1.00;;;;;;4989501;28;20956;-64
2023/10/12 12:21:03;;;;;;;9.43;4.93;;;32.30;1.00;;;;;;4990200;28;20460;-64
2023/10/12 12:23:34;;;;;;;11.33;5.03;;;32.10;1.00;;;;;;4988209;28;20548;-64
2023/10/12 12:26:07;;;;;;;10.27;5.10;;;31.80;1.00;;;;;;4988357;28;20500;-64
2023/10/12 12:28:43;;;;;;;11.97;5.07;;;31.40;1.00;;;;;;4989637;28;20507;-65
2023/10/12 12:31:13;;;;;;;9.27;5.20;;;31.00;1.00;;;;;;4990395;28;20491;-65
2023/10/12 12:33:43;;;;;;;8.57;5.23;;;30.80;1.00;;;;;;4987392;28;20491;-64
2023/10/12 12:36:12;;;;;;;8.80;4.43;;;30.60;1.00;;;;;;4986018;28;20464;-65
2023/10/12 12:38:48;;;;;;;9.30;4.50;;;30.40;1.00;;;;;;4983814;28;20461;-67
2023/10/12 12:41:23;;;;;;;11.20;4.40;;;30.20;1.00;;;;;;4990469;28;20992;-67
2023/10/12 12:43:50;;;;;;;8.53;4.87;;;30.00;1.00;;;;;;4988227;28;20480;-68
2023/10/12 12:46:19;;;;;;;8.83;4.60;;;29.70;1.00;;;;;;4991294;28;20472;-67
2023/10/12 12:48:50;;;;;;;8.83;4.50;;;29.60;1.00;;;;;;4997519;28;20465;-67
2023/10/12 12:51:18;;;;;;;8.97;4.30;;;29.50;1.00;;;;;;5006194;28;20496;-67
2023/10/12 12:53:47;;;;;;;12.90;4.80;;;29.20;1.00;;;;;;4994716;28;20475;-67
2023/10/12 12:56:15;;;;;;;9.60;4.63;;;29.00;1.00;;;;;;4986227;28;20476;-67
2023/10/12 12:58:46;;;;;;;25.63;4.43;;;28.80;1.00;;;;;;4989096;28;20483;-67
2023/10/12 13:01:13;;;;;;;15.73;5.80;;;28.60;1.00;;;;;;4988545;28;20480;-67
2023/10/12 13:03:40;;;;;;;26.70;6.20;;;28.50;1.00;;;;;;4988034;28;20485;-67
2023/10/12 13:06:08;;;;;;;8.47;4.30;;;28.30;1.00;;;;;;4988866;28;20464;-66
2023/10/12 13:08:35;;;;;;;12.23;4.97;;;28.20;1.00;;;;;;4991013;28;20480;-66
2023/10/12 13:11:04;;;;;;;7.40;4.40;;;28.20;1.00;;;;;;4986485;28;20471;-66
2023/10/12 13:13:33;;;;;;;9.67;4.03;;;28.10;1.00;;;;;;4986081;28;20461;-67
2023/10/12 13:16:01;;;;;;;10.13;5.27;;;28.00;1.00;;;;;;4986681;28;20556;-66
2023/10/12 13:18:29;;;;;;;10.10;4.60;;;27.90;1.00;;;;;;4989464;28;20984;-66
2023/10/12 13:20:57;;;;;;;11.23;5.20;;;27.90;1.00;;;;;;4989834;28;20465;-66
2023/10/12 13:23:25;;;;;;;7.50;4.00;;;27.80;1.00;;;;;;4988122;28;20551;-66
2023/10/12 13:25:52;;;;;;;10.80;4.53;;;27.70;1.00;;;;;;4988847;28;20490;-66
2023/10/12 13:28:18;;;;;;;10.77;5.03;;;27.60;1.00;;;;;;4989290;28;20472;-66
2023/10/12 13:30:45;;;;;;;10.10;4.30;;;27.60;1.00;;;;;;4987850;28;20836;-66
2023/10/12 13:33:13;;;;;;;11.30;4.57;;;27.50;1.00;;;;;;4988862;28;20487;-66